sensor_id;sensor_type;location;lat;lon;timestamp;temperature;humidity
11284;DHT22;5698;47.332;11.180;2023-11-19T00:01:27;1.40;99.90
11284;DHT22;5698;47.332;11.180;2023-11-19T00:03:55;1.40;99.90
11284;DHT22;5698;47.332;11.180;2023-11-19T00:06:23;1.50;99.90
11284;DHT22;5698;47.332;11.180;2023-11-19T00:08:50;1.40;99.90
11284;DHT22;5698;47.332;11.180;2023-11-19T00:11:17;1.50;99.90
11284;DHT22;5698;47.332;11.180;2023-11-19T00:13:44;1.50;99.90
11284;DHT22;5698;47.332;11.180;2023-11-19T00:16:11;1.50;99.90
11284;DHT22;5698;47.332;11.180;2023-11-19T00:18:38;1.50;99.90
11284;DHT22;5698;47.332;11.180;2023-11-19T00:21:06;1.50;99.90
11284;DHT22;5698;47.332;11.180;2023-11-19T00:23:35;1.50;99.90
11284;DHT22;5698;47.332;11.180;2023-11-19T00:26:02;1.50;99.90
11284;DHT22;5698;47.332;11.180;2023-11-19T00:28:31;1.50;99.90
11284;DHT22;5698;47.332;11.180;2023-11-19T00:30:58;1.50;99.90
11284;DHT22;5698;47.332;11.180;2023-11-19T00:33:25;1.40;99.90
11284;DHT22;5698;47.332;11.180;2023-11-19T00:35:52;1.50;99.90
11284;DHT22;5698;47.332;11.180;2023-11-19T00:38:20;1.40;99.90
11284;DHT22;5698;47.332;11.180;2023-11-19T00:40:47;1.40;99.90
11284;DHT22;5698;47.332;11.180;2023-11-19T00:43:14;1.60;99.90
11284;DHT22;5698;47.332;11.180;2023-11-19T00:45:41;1.50;99.90
11284;DHT22;5698;47.332;11.180;2023-11-19T00:48:08;1.50;99.90
11284;DHT22;5698;47.332;11.180;2023-11-19T00:50:36;1.50;99.90
11284;DHT22;5698;47.332;11.180;2023-11-19T00:53:03;1.50;99.90
11284;DHT22;5698;47.332;11.180;2023-11-19T00:55:31;1.50;99.90
11284;DHT22;5698;47.332;11.180;2023-11-19T00:57:58;1.60;99.90
11284;DHT22;5698;47.332;11.180;2023-11-19T01:00:25;1.40;99.90
11284;DHT22;5698;47.332;11.180;2023-11-19T01:02:53;1.50;99.90
11284;DHT22;5698;47.332;11.180;2023-11-19T01:05:20;1.50;99.90
11284;DHT22;5698;47.332;11.180;2023-11-19T01:07:50;1.50;99.90
11284;DHT22;5698;47.332;11.180;2023-11-19T01:10:19;1.50;99.90
11284;DHT22;5698;47.332;11.180;2023-11-19T01:12:47;1.50;99.90
11284;DHT22;5698;47.332;11.180;2023-11-19T01:15:14;1.50;99.90
11284;DHT22;5698;47.332;11.180;2023-11-19T01:17:44;1.40;99.90
11284;DHT22;5698;47.332;11.180;2023-11-19T01:20:11;1.40;99.90
11284;DHT22;5698;47.332;11.180;2023-11-19T01:22:38;1.60;99.90
11284;DHT22;5698;47.332;11.180;2023-11-19T01:25:06;1.50;99.90
11284;DHT22;5698;47.332;11.180;2023-11-19T01:27:33;1.50;99.90
11284;DHT22;5698;47.332;11.180;2023-11-19T01:30:03;1.50;99.90
11284;DHT22;5698;47.332;11.180;2023-11-19T01:32:31;1.50;99.90
11284;DHT22;5698;47.332;11.180;2023-11-19T01:34:58;1.50;99.90
11284;DHT22;5698;47.332;11.180;2023-11-19T01:37:25;1.50;99.90
11284;DHT22;5698;47.332;11.180;2023-11-19T01:39:52;1.40;99.90
11284;DHT22;5698;47.332;11.180;2023-11-19T01:42:19;1.50;99.90
11284;DHT22;5698;47.332;11.180;2023-11-19T01:44:56;1.50;99.90
11284;DHT22;5698;47.332;11.180;2023-11-19T01:47:25;1.40;99.90
11284;DHT22;5698;47.332;11.180;2023-11-19T01:49:53;1.40;99.90
11284;DHT22;5698;47.332;11.180;2023-11-19T01:52:20;1.50;99.90
11284;DHT22;5698;47.332;11.180;2023-11-19T01:54:48;1.50;99.90
11284;DHT22;5698;47.332;11.180;2023-11-19T01:57:15;1.50;99.90
11284;DHT22;5698;47.332;11.180;2023-11-19T01:59:43;1.40;99.90
11284;DHT22;5698;47.332;11.180;2023-11-19T02:02:10;1.40;99.90
11284;DHT22;5698;47.332;11.180;2023-11-19T02:04:39;1.40;99.90
11284;DHT22;5698;47.332;11.180;2023-11-19T02:07:07;1.40;99.90
11284;DHT22;5698;47.332;11.180;2023-11-19T02:09:34;1.40;99.90
11284;DHT22;5698;47.332;11.180;2023-11-19T02:12:01;1.60;99.90
11284;DHT22;5698;47.332;11.180;2023-11-19T02:14:29;1.50;99.90
11284;DHT22;5698;47.332;11.180;2023-11-19T02:16:56;1.60;99.90
11284;DHT22;5698;47.332;11.180;2023-11-19T02:19:23;1.60;99.90
11284;DHT22;5698;47.332;11.180;2023-11-19T02:21:51;1.50;99.90
11284;DHT22;5698;47.332;11.180;2023-11-19T02:24:21;1.50;99.90
11284;DHT22;5698;47.332;11.180;2023-11-19T02:26:55;1.60;99.90
11284;DHT22;5698;47.332;11.180;2023-11-19T02:29:27;1.50;99.90
11284;DHT22;5698;47.332;11.180;2023-11-19T02:31:54;1.50;99.90
11284;DHT22;5698;47.332;11.180;2023-11-19T02:34:22;1.50;99.90
11284;DHT22;5698;47.332;11.180;2023-11-19T02:36:49;1.50;99.90
11284;DHT22;5698;47.332;11.180;2023-11-19T02:39:15;1.50;99.90
11284;DHT22;5698;47.332;11.180;2023-11-19T02:41:47;1.50;99.90
11284;DHT22;5698;47.332;11.180;2023-11-19T02:44:16;1.50;99.90
11284;DHT22;5698;47.332;11.180;2023-11-19T02:46:44;1.50;99.90
11284;DHT22;5698;47.332;11.180;2023-11-19T02:49:14;1.50;99.90
11284;DHT22;5698;47.332;11.180;2023-11-19T02:51:40;1.50;99.90
11284;DHT22;5698;47.332;11.180;2023-11-19T02:54:08;1.50;99.90
11284;DHT22;5698;47.332;11.180;2023-11-19T02:56:35;1.60;99.90
11284;DHT22;5698;47.332;11.180;2023-11-19T02:59:04;1.50;99.90
11284;DHT22;5698;47.332;11.180;2023-11-19T03:01:40;1.50;99.90
11284;DHT22;5698;47.332;11.180;2023-11-19T03:04:10;1.50;99.90
11284;DHT22;5698;47.332;11.180;2023-11-19T03:06:42;1.60;99.90
11284;DHT22;5698;47.332;11.180;2023-11-19T03:09:09;1.50;99.90
11284;DHT22;5698;47.332;11.180;2023-11-19T03:11:36;1.60;99.90
11284;DHT22;5698;47.332;11.180;2023-11-19T03:14:03;1.60;99.90
11284;DHT22;5698;47.332;11.180;2023-11-19T03:16:30;1.60;99.90
11284;DHT22;5698;47.332;11.180;2023-11-19T03:18:58;1.60;99.90
11284;DHT22;5698;47.332;11.180;2023-11-19T03:21:29;1.50;99.90
11284;DHT22;5698;47.332;11.180;2023-11-19T03:23:56;1.50;99.90
11284;DHT22;5698;47.332;11.180;2023-11-19T03:26:26;1.50;99.90
11284;DHT22;5698;47.332;11.180;2023-11-19T03:28:53;1.50;99.90
11284;DHT22;5698;47.332;11.180;2023-11-19T03:31:20;1.60;99.90
11284;DHT22;5698;47.332;11.180;2023-11-19T03:33:47;1.60;99.90
11284;DHT22;5698;47.332;11.180;2023-11-19T03:36:14;1.50;99.90
11284;DHT22;5698;47.332;11.180;2023-11-19T03:38:42;1.50;99.90
11284;DHT22;5698;47.332;11.180;2023-11-19T03:41:12;1.60;99.90
11284;DHT22;5698;47.332;11.180;2023-11-19T03:43:39;1.50;99.90
11284;DHT22;5698;47.332;11.180;2023-11-19T03:46:16;1.50;99.90
11284;DHT22;5698;47.332;11.180;2023-11-19T03:48:43;1.50;99.90
11284;DHT22;5698;47.332;11.180;2023-11-19T03:51:11;1.50;99.90
11284;DHT22;5698;47.332;11.180;2023-11-19T03:53:42;1.50;99.90
11284;DHT22;5698;47.332;11.180;2023-11-19T03:56:09;1.50;99.90
11284;DHT22;5698;47.332;11.180;2023-11-19T03:58:35;1.60;99.90
11284;DHT22;5698;47.332;11.180;2023-11-19T04:01:04;1.50;99.90
11284;DHT22;5698;47.332;11.180;2023-11-19T04:03:31;1.50;99.90
11284;DHT22;5698;47.332;11.180;2023-11-19T04:05:58;1.50;99.90
11284;DHT22;5698;47.332;11.180;2023-11-19T04:08:24;1.50;99.90
11284;DHT22;5698;47.332;11.180;2023-11-19T04:10:53;1.50;99.90
11284;DHT22;5698;47.332;11.180;2023-11-19T04:13:20;1.50;99.90
11284;DHT22;5698;47.332;11.180;2023-11-19T04:15:49;1.50;99.90
11284;DHT22;5698;47.332;11.180;2023-11-19T04:18:16;1.50;99.90
11284;DHT22;5698;47.332;11.180;2023-11-19T04:20:43;1.50;99.90
11284;DHT22;5698;47.332;11.180;2023-11-19T04:23:09;1.50;99.90
11284;DHT22;5698;47.332;11.180;2023-11-19T04:25:36;1.50;99.90
11284;DHT22;5698;47.332;11.180;2023-11-19T04:28:05;1.60;99.90
11284;DHT22;5698;47.332;11.180;2023-11-19T04:30:32;1.60;99.90
11284;DHT22;5698;47.332;11.180;2023-11-19T04:32:59;1.50;99.90
11284;DHT22;5698;47.332;11.180;2023-11-19T04:35:26;1.50;99.90
11284;DHT22;5698;47.332;11.180;2023-11-19T04:37:52;1.50;99.90
11284;DHT22;5698;47.332;11.180;2023-11-19T04:40:23;1.60;99.90
11284;DHT22;5698;47.332;11.180;2023-11-19T04:42:49;1.70;99.90
11284;DHT22;5698;47.332;11.180;2023-11-19T04:45:18;1.60;99.90
11284;DHT22;5698;47.332;11.180;2023-11-19T04:48:01;1.60;99.90
11284;DHT22;5698;47.332;11.180;2023-11-19T04:50:28;1.50;99.90
11284;DHT22;5698;47.332;11.180;2023-11-19T04:52:55;1.50;99.90
11284;DHT22;5698;47.332;11.180;2023-11-19T04:55:22;1.50;99.90
11284;DHT22;5698;47.332;11.180;2023-11-19T04:57:49;1.60;99.90
11284;DHT22;5698;47.332;11.180;2023-11-19T05:00:16;1.50;99.90
11284;DHT22;5698;47.332;11.180;2023-11-19T05:02:42;1.50;99.90
11284;DHT22;5698;47.332;11.180;2023-11-19T05:05:11;1.50;99.90
11284;DHT22;5698;47.332;11.180;2023-11-19T05:07:38;1.60;99.90
11284;DHT22;5698;47.332;11.180;2023-11-19T05:10:06;1.50;99.90
11284;DHT22;5698;47.332;11.180;2023-11-19T05:12:33;1.50;99.90
11284;DHT22;5698;47.332;11.180;2023-11-19T05:15:00;1.50;99.90
11284;DHT22;5698;47.332;11.180;2023-11-19T05:17:27;1.50;99.90
11284;DHT22;5698;47.332;11.180;2023-11-19T05:19:54;1.50;99.90
11284;DHT22;5698;47.332;11.180;2023-11-19T05:22:22;1.50;99.90
11284;DHT22;5698;47.332;11.180;2023-11-19T05:24:49;1.50;99.90
11284;DHT22;5698;47.332;11.180;2023-11-19T05:27:16;1.60;99.90
11284;DHT22;5698;47.332;11.180;2023-11-19T05:29:43;1.60;99.90
11284;DHT22;5698;47.332;11.180;2023-11-19T05:32:10;1.60;99.90
11284;DHT22;5698;47.332;11.180;2023-11-19T05:34:37;1.60;99.90
11284;DHT22;5698;47.332;11.180;2023-11-19T05:37:04;1.60;99.90
11284;DHT22;5698;47.332;11.180;2023-11-19T05:39:32;1.60;99.90
11284;DHT22;5698;47.332;11.180;2023-11-19T05:41:59;1.60;99.90
11284;DHT22;5698;47.332;11.180;2023-11-19T05:44:26;1.70;99.90
11284;DHT22;5698;47.332;11.180;2023-11-19T05:46:53;1.70;99.90
11284;DHT22;5698;47.332;11.180;2023-11-19T05:49:20;1.70;99.90
11284;DHT22;5698;47.332;11.180;2023-11-19T05:51:47;1.70;99.90
11284;DHT22;5698;47.332;11.180;2023-11-19T05:54:14;1.80;99.90
11284;DHT22;5698;47.332;11.180;2023-11-19T05:56:47;1.70;99.90
11284;DHT22;5698;47.332;11.180;2023-11-19T05:59:14;1.70;99.90
11284;DHT22;5698;47.332;11.180;2023-11-19T06:01:43;1.70;99.90
11284;DHT22;5698;47.332;11.180;2023-11-19T06:04:10;1.70;99.90
11284;DHT22;5698;47.332;11.180;2023-11-19T06:06:37;1.70;99.90
11284;DHT22;5698;47.332;11.180;2023-11-19T06:09:05;1.70;99.90
11284;DHT22;5698;47.332;11.180;2023-11-19T06:11:33;1.80;99.90
11284;DHT22;5698;47.332;11.180;2023-11-19T06:14:03;1.70;99.90
11284;DHT22;5698;47.332;11.180;2023-11-19T06:16:31;1.70;99.90
11284;DHT22;5698;47.332;11.180;2023-11-19T06:18:58;1.70;99.90
11284;DHT22;5698;47.332;11.180;2023-11-19T06:21:25;1.70;99.90
11284;DHT22;5698;47.332;11.180;2023-11-19T06:23:52;1.80;99.90
11284;DHT22;5698;47.332;11.180;2023-11-19T06:26:20;1.70;99.90
11284;DHT22;5698;47.332;11.180;2023-11-19T06:28:47;1.70;99.90
11284;DHT22;5698;47.332;11.180;2023-11-19T06:31:16;1.70;99.90
11284;DHT22;5698;47.332;11.180;2023-11-19T06:33:43;1.80;99.90
11284;DHT22;5698;47.332;11.180;2023-11-19T06:36:10;1.80;99.90
11284;DHT22;5698;47.332;11.180;2023-11-19T06:38:37;1.80;99.90
11284;DHT22;5698;47.332;11.180;2023-11-19T06:41:07;1.80;99.90
11284;DHT22;5698;47.332;11.180;2023-11-19T06:43:35;1.90;99.90
11284;DHT22;5698;47.332;11.180;2023-11-19T06:46:02;1.80;99.90
11284;DHT22;5698;47.332;11.180;2023-11-19T06:48:32;1.90;99.90
11284;DHT22;5698;47.332;11.180;2023-11-19T06:51:00;2.00;99.90
11284;DHT22;5698;47.332;11.180;2023-11-19T06:53:27;2.00;99.90
11284;DHT22;5698;47.332;11.180;2023-11-19T06:55:54;2.00;99.90
11284;DHT22;5698;47.332;11.180;2023-11-19T06:58:22;2.00;99.90
11284;DHT22;5698;47.332;11.180;2023-11-19T07:00:49;2.00;99.90
11284;DHT22;5698;47.332;11.180;2023-11-19T07:03:16;1.90;99.90
11284;DHT22;5698;47.332;11.180;2023-11-19T07:05:45;2.00;99.90
11284;DHT22;5698;47.332;11.180;2023-11-19T07:08:12;2.00;99.90
11284;DHT22;5698;47.332;11.180;2023-11-19T07:10:38;2.00;99.90
11284;DHT22;5698;47.332;11.180;2023-11-19T07:13:06;2.10;99.90
11284;DHT22;5698;47.332;11.180;2023-11-19T07:15:33;2.10;99.90
11284;DHT22;5698;47.332;11.180;2023-11-19T07:17:59;2.20;99.90
11284;DHT22;5698;47.332;11.180;2023-11-19T07:20:27;2.20;99.90
11284;DHT22;5698;47.332;11.180;2023-11-19T07:22:55;2.20;99.90
11284;DHT22;5698;47.332;11.180;2023-11-19T07:25:22;2.20;99.90
11284;DHT22;5698;47.332;11.180;2023-11-19T07:27:51;2.20;99.90
11284;DHT22;5698;47.332;11.180;2023-11-19T07:30:18;2.30;99.90
11284;DHT22;5698;47.332;11.180;2023-11-19T07:32:45;2.30;99.90
11284;DHT22;5698;47.332;11.180;2023-11-19T07:35:12;2.40;99.90
11284;DHT22;5698;47.332;11.180;2023-11-19T07:37:39;2.50;99.90
11284;DHT22;5698;47.332;11.180;2023-11-19T07:40:08;2.50;99.90
11284;DHT22;5698;47.332;11.180;2023-11-19T07:42:37;2.60;99.90
11284;DHT22;5698;47.332;11.180;2023-11-19T07:45:04;2.60;99.90
11284;DHT22;5698;47.332;11.180;2023-11-19T07:47:32;2.60;99.90
11284;DHT22;5698;47.332;11.180;2023-11-19T07:50:00;2.60;99.90
11284;DHT22;5698;47.332;11.180;2023-11-19T07:52:27;2.70;99.90
11284;DHT22;5698;47.332;11.180;2023-11-19T07:54:54;2.70;99.90
11284;DHT22;5698;47.332;11.180;2023-11-19T07:57:22;2.80;99.90
11284;DHT22;5698;47.332;11.180;2023-11-19T07:59:53;2.80;99.90
11284;DHT22;5698;47.332;11.180;2023-11-19T08:02:20;2.80;99.90
11284;DHT22;5698;47.332;11.180;2023-11-19T08:04:47;2.80;99.90
11284;DHT22;5698;47.332;11.180;2023-11-19T08:07:17;2.90;99.90
11284;DHT22;5698;47.332;11.180;2023-11-19T08:09:44;2.90;99.90
11284;DHT22;5698;47.332;11.180;2023-11-19T08:12:11;2.90;99.90
11284;DHT22;5698;47.332;11.180;2023-11-19T08:14:41;3.00;99.90
11284;DHT22;5698;47.332;11.180;2023-11-19T08:17:09;3.10;99.90
11284;DHT22;5698;47.332;11.180;2023-11-19T08:19:35;3.20;99.90
11284;DHT22;5698;47.332;11.180;2023-11-19T08:22:02;3.20;99.90
11284;DHT22;5698;47.332;11.180;2023-11-19T08:24:29;3.30;99.90
11284;DHT22;5698;47.332;11.180;2023-11-19T08:26:56;3.30;99.90
11284;DHT22;5698;47.332;11.180;2023-11-19T08:29:23;3.40;99.90
11284;DHT22;5698;47.332;11.180;2023-11-19T08:31:51;3.40;99.90
11284;DHT22;5698;47.332;11.180;2023-11-19T08:34:18;3.40;99.90
11284;DHT22;5698;47.332;11.180;2023-11-19T08:36:45;3.40;99.90
11284;DHT22;5698;47.332;11.180;2023-11-19T08:39:12;3.40;99.90
11284;DHT22;5698;47.332;11.180;2023-11-19T08:41:39;3.40;99.90
11284;DHT22;5698;47.332;11.180;2023-11-19T08:44:07;3.50;99.90
11284;DHT22;5698;47.332;11.180;2023-11-19T08:46:34;3.50;99.90
11284;DHT22;5698;47.332;11.180;2023-11-19T08:49:02;3.60;99.90
11284;DHT22;5698;47.332;11.180;2023-11-19T08:51:29;3.70;99.90
11284;DHT22;5698;47.332;11.180;2023-11-19T08:53:56;3.80;99.90
11284;DHT22;5698;47.332;11.180;2023-11-19T08:56:23;3.90;99.90
11284;DHT22;5698;47.332;11.180;2023-11-19T08:58:50;3.90;99.90
11284;DHT22;5698;47.332;11.180;2023-11-19T09:01:17;4.00;99.90
11284;DHT22;5698;47.332;11.180;2023-11-19T09:03:43;4.00;99.90
11284;DHT22;5698;47.332;11.180;2023-11-19T09:06:12;4.20;99.90
11284;DHT22;5698;47.332;11.180;2023-11-19T09:08:39;4.30;99.90
11284;DHT22;5698;47.332;11.180;2023-11-19T09:11:07;4.40;99.90
11284;DHT22;5698;47.332;11.180;2023-11-19T09:13:34;4.40;99.90
11284;DHT22;5698;47.332;11.180;2023-11-19T09:16:01;4.50;99.90
11284;DHT22;5698;47.332;11.180;2023-11-19T09:18:29;4.50;99.90
11284;DHT22;5698;47.332;11.180;2023-11-19T09:20:56;4.60;99.90
11284;DHT22;5698;47.332;11.180;2023-11-19T09:23:24;4.60;99.90
11284;DHT22;5698;47.332;11.180;2023-11-19T09:25:51;4.70;99.90
11284;DHT22;5698;47.332;11.180;2023-11-19T09:28:17;4.80;99.90
11284;DHT22;5698;47.332;11.180;2023-11-19T09:30:44;4.90;99.90
11284;DHT22;5698;47.332;11.180;2023-11-19T09:33:11;5.10;99.90
11284;DHT22;5698;47.332;11.180;2023-11-19T09:35:38;5.30;99.90
11284;DHT22;5698;47.332;11.180;2023-11-19T09:38:05;5.40;99.90
11284;DHT22;5698;47.332;11.180;2023-11-19T09:40:34;5.50;99.90
11284;DHT22;5698;47.332;11.180;2023-11-19T09:43:02;5.50;99.90
11284;DHT22;5698;47.332;11.180;2023-11-19T09:45:29;5.60;99.90
11284;DHT22;5698;47.332;11.180;2023-11-19T09:48:01;5.60;99.90
11284;DHT22;5698;47.332;11.180;2023-11-19T09:50:29;5.70;99.90
11284;DHT22;5698;47.332;11.180;2023-11-19T09:52:55;5.80;99.90
11284;DHT22;5698;47.332;11.180;2023-11-19T09:55:22;6.10;99.90
11284;DHT22;5698;47.332;11.180;2023-11-19T09:57:52;6.40;99.90
11284;DHT22;5698;47.332;11.180;2023-11-19T10:00:20;6.70;99.90
11284;DHT22;5698;47.332;11.180;2023-11-19T10:02:48;7.20;99.90
11284;DHT22;5698;47.332;11.180;2023-11-19T10:05:16;7.60;99.90
11284;DHT22;5698;47.332;11.180;2023-11-19T10:07:43;7.90;99.90
11284;DHT22;5698;47.332;11.180;2023-11-19T10:10:11;8.10;99.90
11284;DHT22;5698;47.332;11.180;2023-11-19T10:12:43;8.30;99.90
11284;DHT22;5698;47.332;11.180;2023-11-19T10:15:19;8.50;99.90
11284;DHT22;5698;47.332;11.180;2023-11-19T10:17:46;8.70;99.90
11284;DHT22;5698;47.332;11.180;2023-11-19T10:20:13;8.80;99.90
11284;DHT22;5698;47.332;11.180;2023-11-19T10:22:40;8.90;99.90
11284;DHT22;5698;47.332;11.180;2023-11-19T10:25:21;8.90;99.90
11284;DHT22;5698;47.332;11.180;2023-11-19T10:27:49;8.90;99.90
11284;DHT22;5698;47.332;11.180;2023-11-19T10:30:20;8.90;99.90
11284;DHT22;5698;47.332;11.180;2023-11-19T10:33:03;9.00;99.90
11284;DHT22;5698;47.332;11.180;2023-11-19T10:35:31;9.00;99.90
11284;DHT22;5698;47.332;11.180;2023-11-19T10:37:59;9.00;99.90
11284;DHT22;5698;47.332;11.180;2023-11-19T10:40:38;9.00;99.90
11284;DHT22;5698;47.332;11.180;2023-11-19T10:43:06;8.90;99.90
11284;DHT22;5698;47.332;11.180;2023-11-19T10:45:34;8.80;99.90
11284;DHT22;5698;47.332;11.180;2023-11-19T10:48:02;8.70;99.90
11284;DHT22;5698;47.332;11.180;2023-11-19T10:50:32;8.80;99.90
11284;DHT22;5698;47.332;11.180;2023-11-19T10:52:59;8.80;99.90
11284;DHT22;5698;47.332;11.180;2023-11-19T10:55:28;8.70;99.90
11284;DHT22;5698;47.332;11.180;2023-11-19T10:58:00;8.50;99.90
11284;DHT22;5698;47.332;11.180;2023-11-19T11:00:29;8.50;99.90
11284;DHT22;5698;47.332;11.180;2023-11-19T11:03:02;8.50;99.90
11284;DHT22;5698;47.332;11.180;2023-11-19T11:05:32;8.50;99.90
11284;DHT22;5698;47.332;11.180;2023-11-19T11:08:00;8.50;99.90
11284;DHT22;5698;47.332;11.180;2023-11-19T11:10:31;8.50;99.90
11284;DHT22;5698;47.332;11.180;2023-11-19T11:13:03;8.50;99.90
11284;DHT22;5698;47.332;11.180;2023-11-19T11:15:30;8.40;99.90
11284;DHT22;5698;47.332;11.180;2023-11-19T11:18:01;8.30;99.90
11284;DHT22;5698;47.332;11.180;2023-11-19T11:20:30;8.20;99.90
11284;DHT22;5698;47.332;11.180;2023-11-19T11:23:16;8.10;99.90
11284;DHT22;5698;47.332;11.180;2023-11-19T11:25:57;8.10;99.90
11284;DHT22;5698;47.332;11.180;2023-11-19T11:28:34;8.20;99.90
11284;DHT22;5698;47.332;11.180;2023-11-19T11:31:13;8.20;99.90
11284;DHT22;5698;47.332;11.180;2023-11-19T11:34:06;8.30;99.90
11284;DHT22;5698;47.332;11.180;2023-11-19T11:36:41;8.40;99.90
11284;DHT22;5698;47.332;11.180;2023-11-19T11:39:12;8.40;99.90
11284;DHT22;5698;47.332;11.180;2023-11-19T11:41:40;8.40;99.90
11284;DHT22;5698;47.332;11.180;2023-11-19T11:44:07;8.40;99.90
11284;DHT22;5698;47.332;11.180;2023-11-19T11:46:55;8.40;99.90
11284;DHT22;5698;47.332;11.180;2023-11-19T11:49:31;8.30;99.90
11284;DHT22;5698;47.332;11.180;2023-11-19T11:52:02;8.30;99.90
11284;DHT22;5698;47.332;11.180;2023-11-19T11:54:32;8.40;99.90
11284;DHT22;5698;47.332;11.180;2023-11-19T11:57:03;8.50;99.90
11284;DHT22;5698;47.332;11.180;2023-11-19T11:59:37;8.60;99.90
11284;DHT22;5698;47.332;11.180;2023-11-19T12:02:04;8.70;99.90
11284;DHT22;5698;47.332;11.180;2023-11-19T12:04:35;8.80;99.90
11284;DHT22;5698;47.332;11.180;2023-11-19T12:07:04;8.80;99.90
11284;DHT22;5698;47.332;11.180;2023-11-19T12:09:31;8.80;99.90
11284;DHT22;5698;47.332;11.180;2023-11-19T12:12:11;8.80;99.90
11284;DHT22;5698;47.332;11.180;2023-11-19T12:15:07;8.80;99.90
11284;DHT22;5698;47.332;11.180;2023-11-19T12:17:49;8.80;99.90
11284;DHT22;5698;47.332;11.180;2023-11-19T12:20:18;8.70;99.90
11284;DHT22;5698;47.332;11.180;2023-11-19T12:22:47;8.50;99.90
11284;DHT22;5698;47.332;11.180;2023-11-19T12:25:15;8.50;99.90
11284;DHT22;5698;47.332;11.180;2023-11-19T12:27:45;8.50;99.90
11284;DHT22;5698;47.332;11.180;2023-11-19T12:30:12;8.50;99.90
11284;DHT22;5698;47.332;11.180;2023-11-19T12:32:40;8.50;99.90
11284;DHT22;5698;47.332;11.180;2023-11-19T12:35:08;8.50;99.90
11284;DHT22;5698;47.332;11.180;2023-11-19T12:37:45;8.50;99.90
11284;DHT22;5698;47.332;11.180;2023-11-19T12:40:14;8.50;99.90
11284;DHT22;5698;47.332;11.180;2023-11-19T12:42:41;8.50;99.90
11284;DHT22;5698;47.332;11.180;2023-11-19T12:45:09;8.50;99.90
11284;DHT22;5698;47.332;11.180;2023-11-19T12:47:38;8.50;99.90
11284;DHT22;5698;47.332;11.180;2023-11-19T12:50:05;8.60;99.90
11284;DHT22;5698;47.332;11.180;2023-11-19T12:52:33;8.60;99.90
11284;DHT22;5698;47.332;11.180;2023-11-19T12:55:02;8.60;99.90
11284;DHT22;5698;47.332;11.180;2023-11-19T12:57:39;8.50;99.90
11284;DHT22;5698;47.332;11.180;2023-11-19T13:00:07;8.40;99.90
11284;DHT22;5698;47.332;11.180;2023-11-19T13:02:46;8.40;99.90
11284;DHT22;5698;47.332;11.180;2023-11-19T13:05:25;8.30;99.90
11284;DHT22;5698;47.332;11.180;2023-11-19T13:07:58;8.30;99.90
11284;DHT22;5698;47.332;11.180;2023-11-19T13:10:28;8.30;99.90
11284;DHT22;5698;47.332;11.180;2023-11-19T13:13:02;8.20;99.90
11284;DHT22;5698;47.332;11.180;2023-11-19T13:15:29;8.20;99.90
11284;DHT22;5698;47.332;11.180;2023-11-19T13:17:56;8.20;99.90
11284;DHT22;5698;47.332;11.180;2023-11-19T13:20:23;8.10;99.90
11284;DHT22;5698;47.332;11.180;2023-11-19T13:22:57;8.10;99.90
11284;DHT22;5698;47.332;11.180;2023-11-19T13:25:24;8.00;99.90
11284;DHT22;5698;47.332;11.180;2023-11-19T13:27:53;7.90;99.90
11284;DHT22;5698;47.332;11.180;2023-11-19T13:30:20;7.90;99.90
11284;DHT22;5698;47.332;11.180;2023-11-19T13:32:47;7.80;99.90
11284;DHT22;5698;47.332;11.180;2023-11-19T13:35:14;7.80;99.90
11284;DHT22;5698;47.332;11.180;2023-11-19T13:37:42;7.80;99.90
11284;DHT22;5698;47.332;11.180;2023-11-19T13:40:10;7.80;99.90
11284;DHT22;5698;47.332;11.180;2023-11-19T13:42:39;7.80;99.90
11284;DHT22;5698;47.332;11.180;2023-11-19T13:45:09;7.80;99.90
11284;DHT22;5698;47.332;11.180;2023-11-19T13:47:40;7.80;99.90
11284;DHT22;5698;47.332;11.180;2023-11-19T13:50:09;7.90;99.90
11284;DHT22;5698;47.332;11.180;2023-11-19T13:52:36;8.00;99.90
11284;DHT22;5698;47.332;11.180;2023-11-19T13:55:06;8.00;99.90
11284;DHT22;5698;47.332;11.180;2023-11-19T13:57:33;8.00;99.90
11284;DHT22;5698;47.332;11.180;2023-11-19T14:00:01;8.00;99.90
11284;DHT22;5698;47.332;11.180;2023-11-19T14:02:32;8.00;99.90
11284;DHT22;5698;47.332;11.180;2023-11-19T14:04:59;7.90;99.90
11284;DHT22;5698;47.332;11.180;2023-11-19T14:07:26;7.90;99.90
11284;DHT22;5698;47.332;11.180;2023-11-19T14:09:53;7.90;99.90
11284;DHT22;5698;47.332;11.180;2023-11-19T14:12:20;7.80;99.90
11284;DHT22;5698;47.332;11.180;2023-11-19T14:14:47;7.80;99.90
11284;DHT22;5698;47.332;11.180;2023-11-19T14:17:14;7.70;99.90
11284;DHT22;5698;47.332;11.180;2023-11-19T14:19:43;7.70;99.90
11284;DHT22;5698;47.332;11.180;2023-11-19T14:22:10;7.80;99.90
11284;DHT22;5698;47.332;11.180;2023-11-19T14:24:37;7.80;99.90
11284;DHT22;5698;47.332;11.180;2023-11-19T14:27:06;7.80;99.90
11284;DHT22;5698;47.332;11.180;2023-11-19T14:29:33;7.80;99.90
11284;DHT22;5698;47.332;11.180;2023-11-19T14:32:00;7.80;99.90
11284;DHT22;5698;47.332;11.180;2023-11-19T14:34:28;7.80;99.90
11284;DHT22;5698;47.332;11.180;2023-11-19T14:36:56;7.70;99.90
11284;DHT22;5698;47.332;11.180;2023-11-19T14:39:23;7.80;99.90
11284;DHT22;5698;47.332;11.180;2023-11-19T14:41:50;7.80;99.90
11284;DHT22;5698;47.332;11.180;2023-11-19T14:44:19;7.80;99.90
11284;DHT22;5698;47.332;11.180;2023-11-19T14:46:46;7.70;99.90
11284;DHT22;5698;47.332;11.180;2023-11-19T14:49:13;7.60;99.90
11284;DHT22;5698;47.332;11.180;2023-11-19T14:51:40;7.60;99.90
11284;DHT22;5698;47.332;11.180;2023-11-19T14:54:09;7.70;99.90
11284;DHT22;5698;47.332;11.180;2023-11-19T14:56:36;7.70;99.90
11284;DHT22;5698;47.332;11.180;2023-11-19T14:59:04;7.70;99.90
11284;DHT22;5698;47.332;11.180;2023-11-19T15:01:31;7.70;99.90
11284;DHT22;5698;47.332;11.180;2023-11-19T15:03:58;7.60;99.90
11284;DHT22;5698;47.332;11.180;2023-11-19T15:06:25;7.50;99.90
11284;DHT22;5698;47.332;11.180;2023-11-19T15:08:53;7.50;99.90
11284;DHT22;5698;47.332;11.180;2023-11-19T15:11:21;7.40;99.90
11284;DHT22;5698;47.332;11.180;2023-11-19T15:13:49;7.30;99.90
11284;DHT22;5698;47.332;11.180;2023-11-19T15:16:16;7.20;99.90
11284;DHT22;5698;47.332;11.180;2023-11-19T15:18:50;7.20;99.90
11284;DHT22;5698;47.332;11.180;2023-11-19T15:21:17;7.20;99.90
11284;DHT22;5698;47.332;11.180;2023-11-19T15:23:44;7.10;99.90
11284;DHT22;5698;47.332;11.180;2023-11-19T15:26:11;7.10;99.90
11284;DHT22;5698;47.332;11.180;2023-11-19T15:28:39;7.10;99.90
11284;DHT22;5698;47.332;11.180;2023-11-19T15:31:06;7.10;99.90
11284;DHT22;5698;47.332;11.180;2023-11-19T15:33:33;7.00;99.90
11284;DHT22;5698;47.332;11.180;2023-11-19T15:36:00;6.90;99.90
11284;DHT22;5698;47.332;11.180;2023-11-19T15:38:28;6.80;99.90
11284;DHT22;5698;47.332;11.180;2023-11-19T15:40:55;6.70;99.90
11284;DHT22;5698;47.332;11.180;2023-11-19T15:43:22;6.70;99.90
11284;DHT22;5698;47.332;11.180;2023-11-19T15:45:51;6.60;99.90
11284;DHT22;5698;47.332;11.180;2023-11-19T15:48:18;6.60;99.90
11284;DHT22;5698;47.332;11.180;2023-11-19T15:50:45;6.60;99.90
11284;DHT22;5698;47.332;11.180;2023-11-19T15:53:12;6.50;99.90